Time,TemperatureF,DewpointF,PressureIn,WindDirection,WindDirectionDegrees,WindSpeedMPH,WindSpeedGustMPH,Humidity,HourlyPrecipIn,Conditions,Clouds,dailyrainin,SoftwareType,DateUTC
2013-01-04 08:50:00,31.3,22.0,30.09,SSE,155,0.0,0.0,68,0.00,,,0.00,Wunderground v.1.15,2013-01-04 13:50:00,
2013-01-04 08:55:00,31.5,22.1,30.09,SSE,155,0.0,0.0,68,0.00,,,0.00,Wunderground v.1.15,2013-01-04 13:55:00,
2013-01-04 09:01:00,31.6,21.9,30.09,SSE,153,0.0,0.0,67,0.00,,,0.00,Wunderground v.1.15,2013-01-04 14:01:00,
2013-01-04 09:05:00,31.8,22.1,30.09,SSE,153,0.0,0.0,67,0.00,,,0.00,Wunderground v.1.15,2013-01-04 14:05:00,
2013-01-04 09:10:00,31.9,22.5,30.08,SSE,153,0.0,0.0,68,0.00,,,0.00,Wunderground v.1.15,2013-01-04 14:10:00,
2013-01-04 09:16:00,32.1,22.4,30.09,SSE,153,0.0,0.0,67,0.00,,,0.00,Wunderground v.1.15,2013-01-04 14:16:00,
2013-01-04 09:25:00,32.4,21.6,30.08,SSE,153,0.0,0.0,64,0.00,,,0.00,Wunderground v.1.15,2013-01-04 14:25:00,
2013-01-04 09:31:00,32.6,21.8,30.08,SSE,153,0.0,0.0,64,0.00,,,0.00,Wunderground v.1.15,2013-01-04 14:31:00,
2013-01-04 09:40:00,33.0,22.9,30.08,SSE,153,0.0,0.0,66,0.00,,,0.00,Wunderground v.1.15,2013-01-04 14:40:00,
2013-01-04 09:45:00,33.3,23.9,30.09,SSE,153,0.0,0.0,68,0.00,,,0.00,Wunderground v.1.15,2013-01-04 14:45:00,
2013-01-04 09:50:00,33.4,24.3,30.09,SSE,153,0.0,0.0,69,0.00,,,0.00,Wunderground v.1.15,2013-01-04 14:50:00,
2013-01-04 10:00:00,33.9,23.4,30.09,SSE,153,0.0,0.0,65,0.00,,,0.00,Wunderground v.1.15,2013-01-04 15:00:00,
2013-01-04 10:10:00,34.4,24.9,30.10,SSE,153,0.0,0.0,68,0.00,,,0.00,Wunderground v.1.15,2013-01-04 15:10:00,
2013-01-04 10:16:00,34.5,24.3,30.10,SSE,153,0.0,0.0,66,0.00,,,0.00,Wunderground v.1.15,2013-01-04 15:16:00,
2013-01-04 10:25:00,35.1,24.9,30.10,SSE,153,0.0,0.0,66,0.00,,,0.00,Wunderground v.1.15,2013-01-04 15:25:00,
2013-01-04 10:31:00,35.4,25.2,30.10,SSE,153,0.0,0.0,66,0.00,,,0.00,Wunderground v.1.15,2013-01-04 15:31:00,
2013-01-04 10:40:00,35.9,24.5,30.10,SSE,153,0.0,0.0,63,0.00,,,0.00,Wunderground v.1.15,2013-01-04 15:40:00,
2013-01-04 10:50:00,36.5,24.7,30.10,SSE,153,0.0,0.0,62,0.00,,,0.00,Wunderground v.1.15,2013-01-04 15:50:00,
2013-01-04 10:56:00,36.8,25.4,30.10,SSE,153,0.0,0.0,63,0.00,,,0.00,Wunderground v.1.15,2013-01-04 15:56:00,
2013-01-04 11:06:00,37.1,25.3,30.12,SSE,153,0.0,0.0,62,0.00,,,0.00,Wunderground v.1.15,2013-01-04 16:06:00,
2013-01-04 11:15:00,37.5,25.7,30.11,SSE,148,0.0,0.0,62,0.00,,,0.00,Wunderground v.1.15,2013-01-04 16:15:00,
2013-01-04 11:25:00,37.9,23.2,30.11,SSE,148,0.0,0.0,55,0.00,,,0.00,Wunderground v.1.15,2013-01-04 16:25:00,
2013-01-04 11:31:00,38.2,24.7,30.10,SSE,148,0.0,0.0,58,0.00,,,0.00,Wunderground v.1.15,2013-01-04 16:31:00,
2013-01-04 11:40:00,39.2,20.6,30.10,SSE,148,0.0,0.0,47,0.00,,,0.00,Wunderground v.1.15,2013-01-04 16:40:00,
2013-01-04 11:46:00,39.8,18.5,30.09,SSE,148,0.0,0.0,42,0.00,,,0.00,Wunderground v.1.15,2013-01-04 16:46:00,
2013-01-04 11:55:00,40.8,22.1,30.09,SSE,148,0.0,0.0,47,0.00,,,0.00,Wunderground v.1.15,2013-01-04 16:55:00,
2013-01-04 12:05:00,40.9,25.1,30.10,SSE,148,0.0,0.0,53,0.00,,,0.00,Wunderground v.1.15,2013-01-04 17:05:00,
2013-01-04 12:10:00,40.7,24.9,30.10,SSE,148,0.0,0.0,53,0.00,,,0.00,Wunderground v.1.15,2013-01-04 17:10:00,
2013-01-04 12:16:00,40.7,25.3,30.10,SSE,148,0.0,0.0,54,0.00,,,0.00,Wunderground v.1.15,2013-01-04 17:16:00,
2013-01-04 12:25:00,41.1,22.9,30.10,SSE,148,0.0,0.0,48,0.00,,,0.00,Wunderground v.1.15,2013-01-04 17:25:00,
2013-01-04 12:30:00,41.3,21.5,30.10,SSE,148,0.0,0.0,45,0.00,,,0.00,Wunderground v.1.15,2013-01-04 17:30:00,
2013-01-04 12:35:00,41.6,24.3,30.09,SSE,148,0.0,0.0,50,0.00,,,0.00,Wunderground v.1.15,2013-01-04 17:35:00,
2013-01-04 12:45:00,41.9,23.1,30.09,SSE,148,0.0,0.0,47,0.00,,,0.00,Wunderground v.1.15,2013-01-04 17:45:00,
2013-01-04 12:55:00,42.2,23.9,30.09,SSE,148,0.0,0.0,48,0.00,,,0.00,Wunderground v.1.15,2013-01-04 17:55:00,
2013-01-04 13:01:00,42.1,22.8,30.09,SSE,148,0.0,0.0,46,0.00,,,0.00,Wunderground v.1.15,2013-01-04 18:01:00,
2013-01-04 13:10:00,42.3,23.0,30.09,SSE,148,0.0,0.0,46,0.00,,,0.00,Wunderground v.1.15,2013-01-04 18:10:00,
2013-01-04 13:16:00,42.3,20.2,30.08,SSE,148,0.0,0.0,41,0.00,,,0.00,Wunderground v.1.15,2013-01-04 18:16:00,
2013-01-04 13:25:00,42.6,22.2,30.08,SSE,148,0.0,0.0,44,0.00,,,0.00,Wunderground v.1.15,2013-01-04 18:25:00,
2013-01-04 13:35:00,42.7,23.3,30.07,SSE,148,0.0,0.0,46,0.00,,,0.00,Wunderground v.1.15,2013-01-04 18:35:00,
2013-01-04 13:46:00,42.6,24.3,30.06,SSE,148,0.0,0.0,48,0.00,,,0.00,Wunderground v.1.15,2013-01-04 18:46:00,
2013-01-04 13:55:00,42.6,23.8,30.06,SSE,148,0.0,0.0,47,0.00,,,0.00,Wunderground v.1.15,2013-01-04 18:55:00,
2013-01-04 14:00:00,43.0,20.3,30.06,SSE,148,0.0,0.0,40,0.00,,,0.00,Wunderground v.1.15,2013-01-04 19:00:00,
2013-01-04 14:10:00,43.3,24.9,30.06,SSE,148,0.0,0.0,48,0.00,,,0.00,Wunderground v.1.15,2013-01-04 19:10:00,
2013-01-04 14:16:00,43.3,25.4,30.05,SSE,148,0.0,0.0,49,0.00,,,0.00,Wunderground v.1.15,2013-01-04 19:16:00,
2013-01-04 14:25:00,43.4,24.0,30.06,SSE,148,0.0,0.0,46,0.00,,,0.00,Wunderground v.1.15,2013-01-04 19:25:00,
2013-01-04 14:31:00,43.5,25.1,30.05,SSE,148,0.0,0.0,48,0.00,,,0.00,Wunderground v.1.15,2013-01-04 19:31:00,
2013-01-04 14:36:00,43.5,25.1,30.05,SSE,148,0.0,0.0,48,0.00,,,0.00,Wunderground v.1.15,2013-01-04 19:36:00,
2013-01-04 14:46:00,43.5,24.6,30.05,SSE,148,0.0,0.0,47,0.00,,,0.00,Wunderground v.1.15,2013-01-04 19:46:00,
2013-01-04 14:55:00,43.5,22.5,30.05,SSE,148,0.0,0.0,43,0.00,,,0.00,Wunderground v.1.15,2013-01-04 19:55:00,
2013-01-04 15:01:00,43.3,22.3,30.05,SSE,148,0.0,0.0,43,0.00,,,0.00,Wunderground v.1.15,2013-01-04 20:01:00,
2013-01-04 15:10:00,43.2,22.7,30.05,SSE,148,0.0,0.0,44,0.00,,,0.00,Wunderground v.1.15,2013-01-04 20:10:00,
2013-01-04 15:20:00,43.4,17.5,30.06,SSE,148,0.0,0.0,35,0.00,,,0.00,Wunderground v.1.15,2013-01-04 20:20:00,
2013-01-04 15:25:00,43.7,18.5,30.06,SSE,148,0.0,0.0,36,0.00,,,0.00,Wunderground v.1.15,2013-01-04 20:25:00,
2013-01-04 15:31:00,44.0,16.7,30.07,SSE,148,0.0,0.0,33,0.00,,,0.00,Wunderground v.1.15,2013-01-04 20:31:00,
2013-01-04 15:40:00,43.6,21.4,30.06,SSE,148,0.0,0.0,41,0.00,,,0.00,Wunderground v.1.15,2013-01-04 20:40:00,
2013-01-04 15:46:00,43.3,20.0,30.07,SSE,148,0.0,0.0,39,0.00,,,0.00,Wunderground v.1.15,2013-01-04 20:46:00,
2013-01-04 15:55:00,43.6,19.0,30.07,SSE,148,0.0,0.0,37,0.00,,,0.00,Wunderground v.1.15,2013-01-04 20:55:00,
2013-01-04 16:05:00,43.7,19.1,30.07,SSE,148,0.0,0.0,37,0.00,,,0.00,Wunderground v.1.15,2013-01-04 21:05:00,
2013-01-04 16:10:00,43.7,19.1,30.08,SSE,148,0.0,0.0,37,0.00,,,0.00,Wunderground v.1.15,2013-01-04 21:10:00,
2013-01-04 16:16:00,43.6,18.4,30.08,SSE,148,0.0,0.0,36,0.00,,,0.00,Wunderground v.1.15,2013-01-04 21:16:00,
2013-01-04 16:26:00,43.4,18.2,30.08,SSE,148,0.0,0.0,36,0.00,,,0.00,Wunderground v.1.15,2013-01-04 21:26:00,
2013-01-04 16:31:00,43.4,18.8,30.08,SSE,148,0.0,0.0,37,0.00,,,0.00,Wunderground v.1.15,2013-01-04 21:31:00,
2013-01-04 16:40:00,43.0,17.8,30.08,SSE,148,0.0,0.0,36,0.00,,,0.00,Wunderground v.1.15,2013-01-04 21:40:00,
2013-01-04 16:50:00,42.8,20.7,30.08,SSE,148,0.0,0.0,41,0.00,,,0.00,Wunderground v.1.15,2013-01-04 21:50:00,
2013-01-04 16:55:00,42.6,19.9,30.08,SSE,148,0.0,0.0,40,0.00,,,0.00,Wunderground v.1.15,2013-01-04 21:55:00,
2013-01-04 17:01:00,42.5,21.5,30.08,SSE,148,0.0,0.0,43,0.00,,,0.00,Wunderground v.1.15,2013-01-04 22:01:00,
2013-01-04 17:10:00,42.3,20.2,30.08,SSE,148,0.0,0.0,41,0.00,,,0.00,Wunderground v.1.15,2013-01-04 22:10:00,
2013-01-04 17:15:00,42.1,21.2,30.08,SSE,148,0.0,0.0,43,0.00,,,0.00,Wunderground v.1.15,2013-01-04 22:15:00,
2013-01-04 17:20:00,42.0,20.0,30.09,SSE,148,0.0,0.0,41,0.00,,,0.00,Wunderground v.1.15,2013-01-04 22:20:00,
2013-01-04 17:30:00,41.4,18.9,30.09,SSE,148,0.0,0.0,40,0.00,,,0.00,Wunderground v.1.15,2013-01-04 22:30:00,
2013-01-04 17:35:00,41.1,19.2,30.09,SSE,148,0.0,0.0,41,0.00,,,0.00,Wunderground v.1.15,2013-01-04 22:35:00,
2013-01-04 17:40:00,40.9,19.0,30.10,SSE,148,0.0,0.0,41,0.00,,,0.00,Wunderground v.1.15,2013-01-04 22:40:00,
2013-01-04 17:46:00,40.7,18.8,30.10,SSE,148,0.0,0.0,41,0.00,,,0.00,Wunderground v.1.15,2013-01-04 22:46:00,
2013-01-04 17:56:00,40.1,18.8,30.10,SSE,148,0.0,0.0,42,0.00,,,0.00,Wunderground v.1.15,2013-01-04 22:56:00,
2013-01-04 18:06:00,39.8,21.2,30.11,SSE,148,0.0,0.0,47,0.00,,,0.00,Wunderground v.1.15,2013-01-04 23:06:00,
2013-01-04 18:15:00,39.3,19.7,30.12,SSE,148,0.0,0.0,45,0.00,,,0.00,Wunderground v.1.15,2013-01-04 23:15:00,
2013-01-04 18:20:00,39.1,21.5,30.12,SSE,148,0.0,0.0,49,0.00,,,0.00,Wunderground v.1.15,2013-01-04 23:20:00,
2013-01-04 18:30:00,38.7,21.2,30.11,SSE,148,0.0,0.0,49,0.00,,,0.00,Wunderground v.1.15,2013-01-04 23:30:00,
2013-01-04 18:35:00,38.6,22.0,30.12,SSE,148,0.0,0.0,51,0.00,,,0.00,Wunderground v.1.15,2013-01-04 23:35:00,
2013-01-04 18:40:00,38.4,20.9,30.12,SSE,148,0.0,0.0,49,0.00,,,0.00,Wunderground v.1.15,2013-01-04 23:40:00,
2013-01-04 18:45:00,38.3,21.3,30.12,SSE,148,0.0,0.0,50,0.00,,,0.00,Wunderground v.1.15,2013-01-04 23:45:00,
2013-01-04 18:56:00,38.1,22.5,30.12,SSE,148,0.0,0.0,53,0.00,,,0.00,Wunderground v.1.15,2013-01-04 23:56:00,
2013-01-04 19:05:00,37.8,22.6,30.12,SSE,148,0.0,0.0,54,0.00,,,0.00,Wunderground v.1.15,2013-01-05 00:05:00,
2013-01-04 19:10:00,37.7,23.0,30.12,SSE,148,0.0,0.0,55,0.00,,,0.00,Wunderground v.1.15,2013-01-05 00:10:00,
2013-01-04 19:16:00,37.5,23.2,30.12,SSE,148,0.0,0.0,56,0.00,,,0.00,Wunderground v.1.15,2013-01-05 00:16:00,
2013-01-04 19:25:00,37.1,20.6,30.13,SSE,148,0.0,0.0,51,0.00,,,0.00,Wunderground v.1.15,2013-01-05 00:25:00,
2013-01-04 19:31:00,37.0,21.0,30.14,SSE,148,0.0,0.0,52,0.00,,,0.00,Wunderground v.1.15,2013-01-05 00:31:00,
2013-01-04 19:40:00,36.9,21.8,30.14,SSE,148,0.0,0.0,54,0.00,,,0.00,Wunderground v.1.15,2013-01-05 00:40:00,
2013-01-04 19:46:00,36.7,21.6,30.14,SSE,148,0.0,0.0,54,0.00,,,0.00,Wunderground v.1.15,2013-01-05 00:46:00,
2013-01-04 19:56:00,36.5,19.6,30.14,SSE,148,0.0,0.0,50,0.00,,,0.00,Wunderground v.1.15,2013-01-05 00:56:00,
2013-01-04 20:01:00,36.4,20.0,30.14,SSE,148,0.0,0.0,51,0.00,,,0.00,Wunderground v.1.15,2013-01-05 01:01:00,
2013-01-04 20:06:00,36.4,20.4,30.14,SSE,148,0.0,0.0,52,0.00,,,0.00,Wunderground v.1.15,2013-01-05 01:06:00,
2013-01-04 20:16:00,36.4,21.8,30.14,SSE,148,0.0,0.0,55,0.00,,,0.00,Wunderground v.1.15,2013-01-05 01:16:00,
2013-01-04 20:26:00,36.3,22.5,30.14,SSE,148,0.0,0.0,57,0.00,,,0.00,Wunderground v.1.15,2013-01-05 01:26:00,
2013-01-04 20:35:00,36.1,21.5,30.13,SSE,148,0.0,0.0,55,0.00,,,0.00,Wunderground v.1.15,2013-01-05 01:35:00,
2013-01-04 20:40:00,36.0,21.4,30.13,SSE,148,0.0,0.0,55,0.00,,,0.00,Wunderground v.1.15,2013-01-05 01:40:00,
2013-01-04 20:50:00,35.9,21.3,30.13,SSE,148,0.0,0.0,55,0.00,,,0.00,Wunderground v.1.15,2013-01-05 01:50:00,
2013-01-04 20:56:00,35.9,21.3,30.13,SSE,148,0.0,0.0,55,0.00,,,0.00,Wunderground v.1.15,2013-01-05 01:56:00,
2013-01-04 21:06:00,36.0,21.8,30.13,SSE,148,0.0,0.0,56,0.00,,,0.00,Wunderground v.1.15,2013-01-05 02:06:00,
2013-01-04 21:16:00,36.0,21.8,30.14,SSE,148,0.0,0.0,56,0.00,,,0.00,Wunderground v.1.15,2013-01-05 02:16:00,
2013-01-04 21:25:00,35.9,21.7,30.14,SSE,148,0.0,0.0,56,0.00,,,0.00,Wunderground v.1.15,2013-01-05 02:25:00,
2013-01-04 21:31:00,35.9,21.7,30.14,SSE,148,0.0,0.0,56,0.00,,,0.00,Wunderground v.1.15,2013-01-05 02:31:00,
2013-01-04 21:40:00,35.7,21.5,30.14,SSE,148,0.0,0.0,56,0.00,,,0.00,Wunderground v.1.15,2013-01-05 02:40:00,
2013-01-04 21:45:00,35.6,21.4,30.13,SSE,148,0.0,0.0,56,0.00,,,0.00,Wunderground v.1.15,2013-01-05 02:45:00,
2013-01-04 21:55:00,35.5,21.8,30.12,SSE,148,0.0,0.0,57,0.00,,,0.00,Wunderground v.1.15,2013-01-05 02:55:00,
2013-01-04 22:01:00,35.5,21.8,30.12,SSE,148,0.0,0.0,57,0.00,,,0.00,Wunderground v.1.15,2013-01-05 03:01:00,
2013-01-04 22:10:00,35.3,21.6,30.13,SSE,148,0.0,0.0,57,0.00,,,0.00,Wunderground v.1.15,2013-01-05 03:10:00,
2013-01-04 22:16:00,35.2,21.5,30.13,SSE,148,0.0,0.0,57,0.00,,,0.00,Wunderground v.1.15,2013-01-05 03:16:00,
2013-01-04 22:21:00,35.2,21.5,30.13,SSE,148,0.0,0.0,57,0.00,,,0.00,Wunderground v.1.15,2013-01-05 03:21:00,
2013-01-04 22:31:00,35.0,21.3,30.12,SSE,148,0.0,0.0,57,0.00,,,0.00,Wunderground v.1.15,2013-01-05 03:31:00,
2013-01-04 22:36:00,34.9,21.2,30.12,SSE,148,0.0,0.0,57,0.00,,,0.00,Wunderground v.1.15,2013-01-05 03:36:00,
2013-01-04 22:45:00,34.9,21.2,30.11,SSE,148,0.0,0.0,57,0.00,,,0.00,Wunderground v.1.15,2013-01-05 03:45:00,
2013-01-04 22:55:00,34.8,21.1,30.12,SSE,148,0.0,0.0,57,0.00,,,0.00,Wunderground v.1.15,2013-01-05 03:55:00,
2013-01-04 23:01:00,34.8,21.5,30.11,SSE,148,0.0,0.0,58,0.00,,,0.00,Wunderground v.1.15,2013-01-05 04:01:00,
2013-01-04 23:10:00,34.4,20.7,30.11,SSE,148,0.0,0.0,57,0.00,,,0.00,Wunderground v.1.15,2013-01-05 04:10:00,
2013-01-04 23:16:00,34.4,21.5,30.12,SSE,148,0.0,0.0,59,0.00,,,0.00,Wunderground v.1.15,2013-01-05 04:16:00,
2013-01-04 23:25:00,34.4,22.3,30.11,SSE,148,0.0,0.0,61,0.00,,,0.00,Wunderground v.1.15,2013-01-05 04:25:00,
2013-01-04 23:35:00,34.2,20.9,30.11,SSE,148,0.0,0.0,58,0.00,,,0.00,Wunderground v.1.15,2013-01-05 04:35:00,
2013-01-04 23:40:00,33.9,20.3,30.11,SSE,148,0.0,0.0,57,0.00,,,0.00,Wunderground v.1.15,2013-01-05 04:40:00,
2013-01-04 23:46:00,33.8,20.2,30.11,SSE,148,0.0,0.0,57,0.00,,,0.00,Wunderground v.1.15,2013-01-05 04:46:00,
2013-01-04 23:55:00,33.7,22.1,30.11,SSE,148,0.0,0.0,62,0.00,,,0.00,Wunderground v.1.15,2013-01-05 04:55:00,